Corunna, Michigan
Current Conditions -  °F | °C
As of 11:15 PM on Sunday 21 Dec 2014 (Local Time) from KRNP Reporting Station
Overcast Overcast  
Wind Chill: 23°   Ceiling: 5000
Heat Index: 31°   Visibility: 7mi
Dew Point: 26°   Wind: 8mph
Humidity: 82%   Direction: 140°SE
Pressure: 30.16"   Gusts: NA
Location:  42.98°N, 84.12°W
Report Text: KRNP 220415Z AUTO 14007KT 7SM OVC050 M01/M03 A3016 RMK AO2 T10071035
Loading
Personal Weather Stations






























Interactive Weather Map New forecast layout! Learn more

10-Day Weather Forecast

Advertisements
Track Severe Weather on mobile